createdAt,value
2022-11-26T00:02:16.816Z,102271.53
2022-11-26T00:04:43.843Z,102272.38
2022-11-26T00:07:15.760Z,102272.50
2022-11-26T00:09:42.915Z,102276.25
2022-11-26T00:12:17.009Z,102269.63
2022-11-26T00:14:44.378Z,102272.28
2022-11-26T00:17:13.354Z,102280.19
2022-11-26T00:19:40.903Z,102276.88
2022-11-26T00:22:24.421Z,102287.72
2022-11-26T00:24:52.832Z,102286.75
2022-11-26T00:27:21.680Z,102292.16
2022-11-26T00:29:48.656Z,102289.69
2022-11-26T00:32:18.590Z,102291.63
2022-11-26T00:34:46.369Z,102295.25
2022-11-26T00:37:21.266Z,102298.03
2022-11-26T00:39:49.106Z,102307.75
2022-11-26T00:42:16.800Z,102302.47
2022-11-26T00:44:43.771Z,102310.41
2022-11-26T00:47:10.806Z,102308.59
2022-11-26T00:49:38.110Z,102310.28
2022-11-26T00:52:14.679Z,102312.09
2022-11-26T00:54:42.954Z,102309.72
2022-11-26T00:57:11.327Z,102314.16
2022-11-26T00:59:38.266Z,102319.75
2022-11-26T01:02:05.261Z,102316.28
2022-11-26T01:04:33.281Z,102326.84
2022-11-26T01:07:00.314Z,102328.47
2022-11-26T01:09:27.295Z,102334.44
2022-11-26T01:11:55.667Z,102336.13
2022-11-26T01:14:25.222Z,102335.16
2022-11-26T01:16:55.704Z,102342.91
2022-11-26T01:19:22.892Z,102344.72
2022-11-26T01:21:49.832Z,102347.06
2022-11-26T01:24:16.851Z,102354.72
2022-11-26T01:26:45.147Z,102350.13
2022-11-26T01:29:17.326Z,102356.91
2022-11-26T01:31:45.105Z,102359.41
2022-11-26T01:34:12.152Z,102362.19
2022-11-26T01:36:41.284Z,102361.34
2022-11-26T01:39:16.803Z,102361.34
2022-11-26T01:41:52.166Z,102365.53
2022-11-26T01:44:24.859Z,102367.03
2022-11-26T01:46:53.172Z,102381.88
2022-11-26T01:49:23.012Z,102378.28
2022-11-26T01:52:00.825Z,102383.84
2022-11-26T01:54:28.520Z,102386.09
2022-11-26T01:57:03.242Z,102392.66
2022-11-26T01:59:36.618Z,102395.88
2022-11-26T02:02:04.607Z,102390.59
2022-11-26T02:04:37.921Z,102391.84
2022-11-26T02:07:05.569Z,102394.19
2022-11-26T02:09:33.387Z,102396.16
2022-11-26T02:12:00.859Z,102399.06
2022-11-26T02:14:36.895Z,102408.00
2022-11-26T02:17:21.333Z,102408.84
2022-11-26T02:20:33.502Z,102405.97
2022-11-26T02:23:37.621Z,102410.38
2022-11-26T02:26:44.351Z,102405.09
2022-11-26T02:29:22.987Z,102419.13
2022-11-26T02:31:59.965Z,102418.44
2022-11-26T02:34:37.807Z,102424.56
2022-11-26T02:37:13.242Z,102432.19
2022-11-26T02:39:40.471Z,102430.09
2022-11-26T02:42:25.953Z,102435.66
2022-11-26T02:44:57.399Z,102437.31
2022-11-26T02:47:29.317Z,102433.56
2022-11-26T02:50:02.415Z,102433.16
2022-11-26T02:52:33.089Z,102435.38
2022-11-26T02:55:05.862Z,102441.63
2022-11-26T02:57:41.344Z,102452.28
2022-11-26T03:00:10.347Z,102448.13
2022-11-26T03:02:45.616Z,102453.69
2022-11-26T03:05:18.056Z,102455.06
2022-11-26T03:07:49.372Z,102460.47
2022-11-26T03:10:17.152Z,102453.69
2022-11-26T03:12:44.100Z,102466.13
2022-11-26T03:15:11.967Z,102466.53
2022-11-26T03:17:40.528Z,102458.34
2022-11-26T03:20:08.917Z,102459.19
2022-11-26T03:22:36.548Z,102456.69
2022-11-26T03:25:05.024Z,102461.13
2022-11-26T03:27:32.158Z,102463.06
2022-11-26T03:29:59.093Z,102460.44
2022-11-26T03:32:26.184Z,102458.59
2022-11-26T03:34:54.531Z,102456.69
2022-11-26T03:37:21.538Z,102452.25
2022-11-26T03:39:48.508Z,102446.84
2022-11-26T03:42:15.467Z,102456.97
2022-11-26T03:44:42.409Z,102451.56
2022-11-26T03:47:09.348Z,102451.44
2022-11-26T03:49:36.329Z,102455.03
2022-11-26T03:52:04.999Z,102458.94
2022-11-26T03:54:31.992Z,102453.91
2022-11-26T03:56:59.039Z,102446.00
2022-11-26T03:59:26.037Z,102453.06
2022-11-26T04:01:53.091Z,102453.06
2022-11-26T04:04:21.189Z,102452.97
2022-11-26T04:06:48.140Z,102443.22
2022-11-26T04:09:16.510Z,102450.31
2022-11-26T04:11:43.515Z,102453.22
2022-11-26T04:14:10.461Z,102457.66
2022-11-26T04:16:37.859Z,102458.09
2022-11-26T04:19:04.949Z,102465.88
2022-11-26T04:21:31.913Z,102471.41
2022-11-26T04:23:58.900Z,102475.47
2022-11-26T04:26:27.270Z,102484.75
2022-11-26T04:28:54.287Z,102486.44
2022-11-26T04:31:21.383Z,102493.38
2022-11-26T04:33:48.405Z,102497.78
2022-11-26T04:36:15.394Z,102499.63
2022-11-26T04:38:42.420Z,102498.91
2022-11-26T04:41:09.382Z,102493.78
2022-11-26T04:43:37.813Z,102501.69
2022-11-26T04:46:05.155Z,102503.63
2022-11-26T04:48:32.611Z,102516.94
2022-11-26T04:50:59.631Z,102514.31
2022-11-26T04:53:26.675Z,102521.94
2022-11-26T04:55:53.858Z,102527.19
2022-11-26T04:58:21.096Z,102529.03
2022-11-26T05:00:51.179Z,102531.94
2022-11-26T05:03:18.545Z,102534.28
2022-11-26T05:05:46.537Z,102529.38
2022-11-26T05:08:13.863Z,102536.72
2022-11-26T05:10:41.290Z,102538.41
2022-11-26T05:13:08.453Z,102539.91
2022-11-26T05:15:35.482Z,102542.69
2022-11-26T05:18:04.256Z,102542.69
2022-11-26T05:20:31.544Z,102544.38
2022-11-26T05:22:58.478Z,102550.34
2022-11-26T05:25:25.457Z,102546.31
2022-11-26T05:27:52.390Z,102554.56
2022-11-26T05:30:19.864Z,102563.00
2022-11-26T05:32:46.825Z,102551.22
2022-11-26T05:35:15.464Z,102572.31
2022-11-26T05:37:42.494Z,102572.00
2022-11-26T05:40:11.363Z,102563.41
2022-11-26T05:42:38.762Z,102569.13
2022-11-26T05:45:07.821Z,102565.63
2022-11-26T05:47:34.862Z,102567.81
2022-11-26T05:50:02.031Z,102569.31
2022-11-26T05:52:30.647Z,102571.66
2022-11-26T05:54:57.641Z,102570.88
2022-11-26T05:57:24.610Z,102580.53
2022-11-26T05:59:51.645Z,102590.34
2022-11-26T06:02:18.872Z,102589.56
2022-11-26T06:04:45.966Z,102588.72
2022-11-26T06:07:13.004Z,102586.00
2022-11-26T06:09:41.535Z,102591.44
2022-11-26T06:12:08.617Z,102587.25
2022-11-26T06:14:40.310Z,102595.88
2022-11-26T06:17:09.934Z,102592.00
2022-11-26T06:19:36.873Z,102591.75
2022-11-26T06:22:03.895Z,102597.34
2022-11-26T06:24:32.201Z,102606.28
2022-11-26T06:27:00.935Z,102606.44
2022-11-26T06:29:28.474Z,102612.75
2022-11-26T06:31:55.831Z,102610.28
2022-11-26T06:34:23.117Z,102615.75
2022-11-26T06:36:50.501Z,102619.09
2022-11-26T06:39:17.516Z,102626.81
2022-11-26T06:41:44.530Z,102628.03
2022-11-26T06:44:12.814Z,102633.06
2022-11-26T06:46:39.807Z,102635.34
2022-11-26T06:49:07.428Z,102642.06
2022-11-26T06:51:34.405Z,102645.25
2022-11-26T06:54:01.757Z,102642.13
2022-11-26T06:56:29.029Z,102644.06
2022-11-26T06:58:56.254Z,102650.53
2022-11-26T07:01:26.701Z,102652.50
2022-11-26T07:03:54.022Z,102639.50
2022-11-26T07:06:24.430Z,102648.06
2022-11-26T07:08:53.390Z,102648.25
2022-11-26T07:11:22.615Z,102645.44
2022-11-26T07:13:49.909Z,102654.06
2022-11-26T07:16:16.951Z,102649.34
2022-11-26T07:18:48.996Z,102646.00
2022-11-26T07:21:17.174Z,102651.41
2022-11-26T07:23:44.178Z,102653.16
2022-11-26T07:26:13.329Z,102658.09
2022-11-26T07:28:41.233Z,102668.88
2022-11-26T07:31:16.508Z,102675.25
2022-11-26T07:33:46.806Z,102671.41
2022-11-26T07:36:18.140Z,102674.03
2022-11-26T07:38:45.778Z,102678.00
2022-11-26T07:41:16.743Z,102681.03
2022-11-26T07:43:45.017Z,102689.38
2022-11-26T07:46:14.155Z,102684.69
2022-11-26T07:48:41.586Z,102694.38
2022-11-26T07:51:17.783Z,102678.78
2022-11-26T07:53:44.949Z,102692.56
2022-11-26T07:56:11.943Z,102694.81
2022-11-26T07:58:38.932Z,102695.41
2022-11-26T08:01:10.737Z,102690.25
2022-11-26T08:03:39.453Z,102696.38
2022-11-26T08:06:15.073Z,102685.97
2022-11-26T08:08:42.643Z,102702.34
2022-11-26T08:11:14.938Z,102700.41
2022-11-26T08:13:42.367Z,102704.97
2022-11-26T08:16:10.727Z,102707.75
2022-11-26T08:18:38.118Z,102708.28
2022-11-26T08:21:05.939Z,102717.72
2022-11-26T08:23:35.351Z,102716.38
2022-11-26T08:26:22.571Z,102721.75
2022-11-26T08:28:49.958Z,102721.22
2022-11-26T08:31:17.748Z,102723.22
2022-11-26T08:33:45.726Z,102721.63
2022-11-26T08:36:12.905Z,102719.00
2022-11-26T08:38:41.426Z,102718.81
2022-11-26T08:41:12.486Z,102727.44
2022-11-26T08:44:05.066Z,102725.03
2022-11-26T08:46:27.558Z,102742.22
2022-11-26T08:48:56.296Z,102739.75
2022-11-26T08:51:24.526Z,102725.94
2022-11-26T08:53:52.823Z,102734.63
2022-11-26T08:56:19.872Z,102741.34
2022-11-26T08:58:48.630Z,102737.47
2022-11-26T09:01:19.140Z,102744.16
2022-11-26T09:03:48.246Z,102745.47
2022-11-26T09:06:15.418Z,102745.38
2022-11-26T09:09:01.199Z,102743.31
2022-11-26T09:11:29.520Z,102744.16
2022-11-26T09:13:58.389Z,102738.47
2022-11-26T09:16:26.998Z,102744.34
2022-11-26T09:18:54.493Z,102746.06
2022-11-26T09:21:22.852Z,102749.03
2022-11-26T09:23:49.919Z,102747.34
2022-11-26T09:26:18.163Z,102750.94
2022-11-26T09:28:46.681Z,102760.38
2022-11-26T09:31:14.190Z,102762.72
2022-11-26T09:33:41.803Z,102768.53
2022-11-26T09:36:11.799Z,102762.25
2022-11-26T09:38:40.396Z,102774.50
2022-11-26T09:41:26.628Z,102769.22
2022-11-26T09:44:25.566Z,102767.03
2022-11-26T09:47:13.661Z,102774.94
2022-11-26T09:49:56.971Z,102770.13
2022-11-26T09:52:30.178Z,102783.72
2022-11-26T09:55:11.545Z,102789.13
2022-11-26T09:57:44.355Z,102791.06
2022-11-26T10:00:25.118Z,102794.81
2022-11-26T10:02:54.177Z,102792.94
2022-11-26T10:05:31.747Z,102796.09
2022-11-26T10:08:13.310Z,102802.25
2022-11-26T10:10:51.977Z,102803.84
2022-11-26T10:13:26.563Z,102803.16
2022-11-26T10:16:11.387Z,102810.13
2022-11-26T10:18:50.122Z,102796.78
2022-11-26T10:21:37.910Z,102804.09
2022-11-26T10:24:20.589Z,102808.38
2022-11-26T10:26:49.302Z,102805.81
2022-11-26T10:29:24.910Z,102811.09
2022-11-26T10:31:58.545Z,102810.84
2022-11-26T10:34:39.424Z,102817.00
2022-11-26T10:37:07.301Z,102817.81
2022-11-26T10:39:34.259Z,102822.13
2022-11-26T10:42:09.272Z,102808.00
2022-11-26T10:44:42.163Z,102810.63
2022-11-26T10:47:27.652Z,102807.63
2022-11-26T10:50:39.534Z,102807.25
2022-11-26T10:53:05.771Z,102809.66
2022-11-26T10:55:39.420Z,102806.78
2022-11-26T10:58:16.306Z,102801.97
2022-11-26T11:00:53.858Z,102807.41
2022-11-26T11:03:44.974Z,102805.88
2022-11-26T11:06:42.861Z,102803.91
2022-11-26T11:09:34.661Z,102811.66
2022-11-26T11:12:21.849Z,102803.91
2022-11-26T11:14:50.792Z,102804.44
2022-11-26T11:17:34.705Z,102806.28
2022-11-26T11:20:26.551Z,102805.56
2022-11-26T11:23:01.355Z,102821.41
2022-11-26T11:25:31.667Z,102806.13
2022-11-26T11:28:12.066Z,102810.75
2022-11-26T11:30:42.163Z,102817.13
2022-11-26T11:33:17.727Z,102819.22
2022-11-26T11:36:04.210Z,102817.84
2022-11-26T11:38:44.555Z,102817.00
2022-11-26T11:41:21.979Z,102813.38
2022-11-26T11:43:49.444Z,102811.84
2022-11-26T11:47:06.078Z,102801.13
2022-11-26T11:49:55.522Z,102806.16
2022-11-26T11:52:38.429Z,102796.53
2022-11-26T11:55:21.416Z,102812.81
2022-11-26T11:58:22.579Z,102801.56
2022-11-26T12:01:00.128Z,102813.25
2022-11-26T12:03:55.864Z,102807.28
2022-11-26T12:06:39.777Z,102802.84
2022-11-26T12:09:21.910Z,102800.19
2022-11-26T12:11:57.342Z,102794.19
2022-11-26T12:14:30.131Z,102798.75
2022-11-26T12:17:05.294Z,102796.38
2022-11-26T12:19:40.575Z,102795.25
2022-11-26T12:22:20.067Z,102787.19
2022-11-26T12:24:55.666Z,102787.47
2022-11-26T12:27:33.601Z,102787.47
2022-11-26T12:30:12.501Z,102785.78
2022-11-26T12:32:49.328Z,102788.84
2022-11-26T12:35:29.989Z,102786.94
2022-11-26T12:38:01.970Z,102783.00
2022-11-26T12:40:38.006Z,102790.53
2022-11-26T12:43:13.935Z,102781.63
2022-11-26T12:45:50.864Z,102786.63
2022-11-26T12:48:43.349Z,102794.72
2022-11-26T12:51:26.692Z,102792.09
2022-11-26T12:54:10.639Z,102791.41
2022-11-26T12:56:50.627Z,102804.63
2022-11-26T12:59:24.399Z,102804.31
2022-11-26T13:01:51.615Z,102804.72
2022-11-26T13:04:37.163Z,102809.34
2022-11-26T13:07:23.384Z,102805.84
2022-11-26T13:10:06.546Z,102799.19
2022-11-26T13:12:51.859Z,102803.53
2022-11-26T13:15:28.127Z,102791.53
2022-11-26T13:17:58.646Z,102799.47
2022-11-26T13:21:00.794Z,102796.13
2022-11-26T13:23:50.554Z,102803.66
2022-11-26T13:26:41.012Z,102801.41
2022-11-26T13:29:44.434Z,102803.34
2022-11-26T13:32:50.945Z,102799.72
2022-11-26T13:35:35.953Z,102797.88
2022-11-26T13:38:22.273Z,102793.81
2022-11-26T13:41:25.779Z,102792.72
2022-11-26T13:44:21.006Z,102791.03
2022-11-26T13:46:55.681Z,102793.31
2022-11-26T13:49:34.885Z,102787.47
2022-11-26T13:52:09.989Z,102776.91
2022-11-26T13:54:42.977Z,102778.00
2022-11-26T13:57:17.870Z,102776.34
2022-11-26T13:59:50.325Z,102778.28
2022-11-26T14:02:44.331Z,102773.56
2022-11-26T14:05:15.356Z,102765.75
2022-11-26T14:07:44.782Z,102766.97
2022-11-26T14:10:42.238Z,102759.88
2022-11-26T14:13:16.454Z,102756.50
2022-11-26T14:15:59.225Z,102754.88
2022-11-26T14:18:58.969Z,102747.63
2022-11-26T14:21:27.299Z,102751.13
2022-11-26T14:23:56.949Z,102757.25
2022-11-26T14:26:30.642Z,102759.91
2022-11-26T14:29:12.950Z,102761.88
2022-11-26T14:31:50.121Z,102760.22
2022-11-26T14:34:27.317Z,102758.16
2022-11-26T14:36:58.569Z,102758.16
2022-11-26T14:39:27.309Z,102754.91
2022-11-26T14:42:01.924Z,102757.88
2022-11-26T14:44:31.344Z,102755.50
2022-11-26T14:47:09.351Z,102754.41
2022-11-26T14:49:40.574Z,102754.66
2022-11-26T14:52:19.520Z,102753.53
2022-11-26T14:54:51.523Z,102752.97
2022-11-26T14:57:25.702Z,102754.91
2022-11-26T14:59:59.838Z,102756.88
2022-11-26T15:02:31.223Z,102751.31
2022-11-26T15:05:01.421Z,102760.50
2022-11-26T15:07:30.903Z,102764.13
2022-11-26T15:10:06.890Z,102756.03
2022-11-26T15:12:36.292Z,102750.50
2022-11-26T15:15:05.921Z,102748.84
2022-11-26T15:17:35.364Z,102754.81
2022-11-26T15:20:08.237Z,102761.34
2022-11-26T15:22:39.866Z,102761.06
2022-11-26T15:25:18.266Z,102753.81
2022-11-26T15:27:59.020Z,102760.78
2022-11-26T15:30:29.472Z,102760.78
2022-11-26T15:33:00.622Z,102760.50
2022-11-26T15:35:29.317Z,102761.47
2022-11-26T15:37:57.422Z,102768.28
2022-11-26T15:40:31.482Z,102760.50
2022-11-26T15:43:02.678Z,102761.63
2022-11-26T15:45:37.836Z,102760.78
2022-11-26T15:48:27.469Z,102770.69
2022-11-26T15:50:57.397Z,102758.28
2022-11-26T15:53:30.422Z,102759.41
2022-11-26T15:55:58.514Z,102766.34
2022-11-26T15:58:29.650Z,102762.34
2022-11-26T16:01:02.337Z,102770.53
2022-11-26T16:03:52.608Z,102767.47
2022-11-26T16:06:32.822Z,102776.09
2022-11-26T16:09:06.597Z,102771.66
2022-11-26T16:11:36.969Z,102779.59
2022-11-26T16:14:32.914Z,102778.63
2022-11-26T16:17:08.077Z,102778.75
2022-11-26T16:19:42.264Z,102776.25
2022-11-26T16:22:17.405Z,102776.25
2022-11-26T16:24:44.797Z,102780.00
2022-11-26T16:27:27.407Z,102777.19
2022-11-26T16:29:54.473Z,102776.69
2022-11-26T16:32:21.931Z,102778.91
2022-11-26T16:34:50.294Z,102774.47
2022-11-26T16:37:21.694Z,102774.47
2022-11-26T16:39:50.701Z,102767.38
2022-11-26T16:42:21.745Z,102770.97
2022-11-26T16:44:49.650Z,102764.41
2022-11-26T16:47:24.029Z,102763.31
2022-11-26T16:49:53.592Z,102754.94
2022-11-26T16:52:21.484Z,102760.78
2022-11-26T16:54:49.355Z,102757.31
2022-11-26T16:57:20.372Z,102752.69
2022-11-26T16:59:51.889Z,102754.22
2022-11-26T17:02:22.108Z,102752.84
2022-11-26T17:04:49.662Z,102751.19
2022-11-26T17:07:24.135Z,102750.22
2022-11-26T17:09:52.233Z,102752.69
2022-11-26T17:12:22.481Z,102740.59
2022-11-26T17:14:49.911Z,102749.53
2022-11-26T17:17:23.867Z,102745.19
2022-11-26T17:19:52.663Z,102744.66
2022-11-26T17:22:21.355Z,102743.66
2022-11-26T17:24:48.326Z,102751.75
2022-11-26T17:27:18.445Z,102759.00
2022-11-26T17:29:47.145Z,102761.94
2022-11-26T17:32:17.717Z,102761.34
2022-11-26T17:34:46.088Z,102757.19
2022-11-26T17:37:17.336Z,102752.75
2022-11-26T17:39:49.365Z,102757.19
2022-11-26T17:42:19.635Z,102751.91
2022-11-26T17:44:46.589Z,102753.84
2022-11-26T17:47:17.751Z,102749.97
2022-11-26T17:49:46.540Z,102747.59
2022-11-26T17:52:13.726Z,102752.19
2022-11-26T17:54:41.130Z,102755.81
2022-11-26T17:57:11.109Z,102746.91
2022-11-26T17:59:40.109Z,102747.19
2022-11-26T18:02:08.069Z,102750.75
2022-11-26T18:04:35.355Z,102755.34
2022-11-26T18:07:07.230Z,102751.34
2022-11-26T18:09:35.151Z,102751.34
2022-11-26T18:12:04.026Z,102753.03
2022-11-26T18:14:35.557Z,102749.38
2022-11-26T18:17:03.594Z,102744.09
2022-11-26T18:19:30.831Z,102747.19
2022-11-26T18:21:57.823Z,102734.66
2022-11-26T18:24:24.800Z,102730.47
2022-11-26T18:26:56.064Z,102738.81
2022-11-26T18:29:23.516Z,102736.84
2022-11-26T18:31:52.606Z,102733.53
2022-11-26T18:34:19.767Z,102730.19
2022-11-26T18:36:52.208Z,102734.63
2022-11-26T18:39:20.719Z,102735.47
2022-11-26T18:41:47.661Z,102731.84
2022-11-26T18:44:14.714Z,102737.84
2022-11-26T18:46:41.664Z,102723.63
2022-11-26T18:49:09.985Z,102723.19
2022-11-26T18:51:36.926Z,102717.34
2022-11-26T18:54:04.211Z,102715.41
2022-11-26T18:56:31.561Z,102721.38
2022-11-26T18:58:58.585Z,102710.94
2022-11-26T19:01:29.593Z,102709.53
2022-11-26T19:03:58.569Z,102707.91
2022-11-26T19:06:29.890Z,102706.22
2022-11-26T19:08:59.569Z,102706.22
2022-11-26T19:11:27.757Z,102702.72
2022-11-26T19:13:57.021Z,102706.81
2022-11-26T19:16:27.274Z,102714.06
2022-11-26T19:18:54.891Z,102711.53
2022-11-26T19:21:26.684Z,102715.00
2022-11-26T19:23:58.264Z,102718.34
2022-11-26T19:26:25.303Z,102719.47
2022-11-26T19:28:52.649Z,102716.69
2022-11-26T19:31:22.846Z,102714.31
2022-11-26T19:33:54.332Z,102709.88
2022-11-26T19:36:22.021Z,102711.41
2022-11-26T19:38:56.082Z,102713.22
2022-11-26T19:41:25.781Z,102710.41
2022-11-26T19:43:54.197Z,102712.38
2022-11-26T19:46:23.622Z,102709.03
2022-11-26T19:48:52.930Z,102715.28
2022-11-26T19:51:23.414Z,102704.88
2022-11-26T19:53:54.609Z,102706.66
2022-11-26T19:56:24.528Z,102702.50
2022-11-26T19:58:54.056Z,102702.66
2022-11-26T20:01:22.141Z,102704.63
2022-11-26T20:03:50.225Z,102700.28
2022-11-26T20:06:21.367Z,102699.84
2022-11-26T20:08:49.181Z,102705.28
2022-11-26T20:11:18.843Z,102701.28
2022-11-26T20:13:48.686Z,102697.09
2022-11-26T20:16:19.293Z,102707.09
2022-11-26T20:18:47.613Z,102699.31
2022-11-26T20:21:21.468Z,102705.72
2022-11-26T20:23:50.766Z,102701.56
2022-11-26T20:26:25.204Z,102699.06
2022-11-26T20:28:53.622Z,102692.94
2022-11-26T20:31:23.995Z,102686.81
2022-11-26T20:33:52.718Z,102694.03
2022-11-26T20:36:22.547Z,102691.84
2022-11-26T20:38:53.285Z,102683.50
2022-11-26T20:41:24.469Z,102691.00
2022-11-26T20:43:57.923Z,102692.94
2022-11-26T20:46:27.059Z,102694.06
2022-11-26T20:48:54.192Z,102690.56
2022-11-26T20:51:22.271Z,102690.84
2022-11-26T20:53:51.193Z,102696.53
2022-11-26T20:56:21.719Z,102702.94
2022-11-26T20:58:50.542Z,102701.56
2022-11-26T21:01:20.965Z,102707.09
2022-11-26T21:03:48.483Z,102704.47
2022-11-26T21:06:18.061Z,102709.22
2022-11-26T21:08:45.278Z,102708.50
2022-11-26T21:11:13.645Z,102712.97
2022-11-26T21:13:42.570Z,102712.25
2022-11-26T21:16:14.568Z,102715.16
2022-11-26T21:18:41.817Z,102727.69
2022-11-26T21:21:10.461Z,102730.31
2022-11-26T21:23:39.146Z,102741.56
2022-11-26T21:26:07.814Z,102739.88
2022-11-26T21:28:35.695Z,102746.28
2022-11-26T21:31:10.155Z,102760.59
2022-11-26T21:33:37.184Z,102762.97
2022-11-26T21:36:06.388Z,102760.19
2022-11-26T21:38:33.705Z,102752.97
2022-11-26T21:41:05.277Z,102750.44
2022-11-26T21:43:32.356Z,102758.53
2022-11-26T21:46:02.736Z,102761.31
2022-11-26T21:48:32.400Z,102757.53
2022-11-26T21:50:59.457Z,102744.59
2022-11-26T21:53:26.446Z,102741.28
2022-11-26T21:55:53.472Z,102732.38
2022-11-26T21:58:20.431Z,102737.38
2022-11-26T22:00:47.389Z,102739.88
2022-11-26T22:03:14.279Z,102734.47
2022-11-26T22:05:43.457Z,102735.44
2022-11-26T22:08:10.576Z,102731.13
2022-11-26T22:10:37.644Z,102736.41
2022-11-26T22:13:04.619Z,102748.19
2022-11-26T22:15:31.555Z,102745.84
2022-11-26T22:17:58.478Z,102738.19
2022-11-26T22:20:25.436Z,102729.59
2022-11-26T22:22:53.755Z,102727.06
2022-11-26T22:25:22.498Z,102725.66
2022-11-26T22:27:49.911Z,102728.16
2022-11-26T22:30:17.640Z,102711.50
2022-11-26T22:32:44.787Z,102712.06
2022-11-26T22:35:11.772Z,102704.84
2022-11-26T22:37:38.729Z,102703.03
2022-11-26T22:40:09.719Z,102697.06
2022-11-26T22:42:36.654Z,102698.16
2022-11-26T22:45:04.559Z,102690.25
2022-11-26T22:47:31.459Z,102679.97
2022-11-26T22:49:58.412Z,102664.00
2022-11-26T22:52:25.371Z,102660.66
2022-11-26T22:54:52.326Z,102663.16
2022-11-26T22:57:25.073Z,102659.41
2022-11-26T22:59:52.708Z,102648.72
2022-11-26T23:02:19.763Z,102643.44
2022-11-26T23:04:46.737Z,102645.94
2022-11-26T23:07:13.720Z,102639.16
2022-11-26T23:09:46.384Z,102637.47
2022-11-26T23:12:13.756Z,102644.81
2022-11-26T23:14:42.110Z,102637.03
2022-11-26T23:17:09.056Z,102640.66
2022-11-26T23:19:36.067Z,102643.16
2022-11-26T23:22:03.053Z,102637.88
2022-11-26T23:24:30.012Z,102635.66
2022-11-26T23:26:56.936Z,102639.50
2022-11-26T23:29:23.880Z,102629.53
2022-11-26T23:31:52.356Z,102636.75
2022-11-26T23:34:19.365Z,102630.09
2022-11-26T23:36:46.365Z,102632.00
2022-11-26T23:39:13.700Z,102638.94
2022-11-26T23:41:40.754Z,102630.34
2022-11-26T23:44:07.818Z,102630.47
2022-11-26T23:46:35.392Z,102630.59
2022-11-26T23:49:05.070Z,102616.72
2022-11-26T23:51:33.512Z,102619.78
2022-11-26T23:54:00.610Z,102614.03
2022-11-26T23:56:30.495Z,102616.38
2022-11-26T23:59:00.183Z,102613.03
